Time;durP1;ratioP1;P1;durP2;ratioP2;P2;SDS_P1;SDS_P2;PMS_P1;PMS_P2;Temp;Humidity;BMP_temperature;BMP_pressure;BME280_temperature;BME280_humidity;BME280_pressure;Samples;Min_cycle;Max_cycle;Signal;HPM_P1;HPM_P2
2023/04/17 00:00:42;;;;;;;43.13;20.63;;;10.90;99.90;;;;;;5019223;28;20038;-93
2023/04/17 00:03:10;;;;;;;39.47;19.77;;;10.90;99.90;;;;;;5035974;28;20053;-93
2023/04/17 00:05:36;;;;;;;47.00;23.50;;;10.90;99.90;;;;;;5018571;28;20037;-92
2023/04/17 00:08:02;;;;;;;52.92;21.65;;;10.90;99.90;;;;;;5019166;28;20556;-94
2023/04/17 00:10:27;;;;;;;46.10;21.25;;;10.90;99.90;;;;;;5036453;28;20052;-93
2023/04/17 00:12:53;;;;;;;42.45;19.60;;;10.90;99.90;;;;;;5018923;28;20024;-93
2023/04/17 00:15:19;;;;;;;42.78;22.00;;;10.90;99.90;;;;;;5037242;28;20033;-93
2023/04/17 00:17:44;;;;;;;45.70;21.05;;;10.90;99.90;;;;;;5033868;28;20021;-91
2023/04/17 00:20:11;;;;;;;45.67;21.00;;;10.90;99.90;;;;;;5036744;28;20033;-93
2023/04/17 00:22:37;;;;;;;48.03;21.17;;;10.90;99.90;;;;;;5018425;28;20124;-93
2023/04/17 00:25:03;;;;;;;39.97;21.30;;;10.90;99.90;;;;;;5018388;28;20031;-94
2023/04/17 00:27:29;;;;;;;48.63;21.70;;;10.90;99.90;;;;;;5036592;28;20029;-93
2023/04/17 00:29:55;;;;;;;49.28;20.88;;;10.90;99.90;;;;;;5018453;28;20048;-94
2023/04/17 00:32:20;;;;;;;40.75;20.83;;;10.90;99.90;;;;;;5018472;28;20032;-93
2023/04/17 00:34:46;;;;;;;41.75;21.65;;;10.80;99.90;;;;;;5018263;28;20385;-91
2023/04/17 00:37:12;;;;;;;46.40;22.63;;;10.80;99.90;;;;;;5035893;28;20624;-93
2023/04/17 00:39:37;;;;;;;37.33;18.90;;;10.80;99.90;;;;;;5035602;28;20498;-93
2023/04/17 00:42:04;;;;;;;52.78;22.83;;;10.80;99.90;;;;;;5018002;28;20479;-93
2023/04/17 00:44:30;;;;;;;47.47;23.10;;;10.70;99.90;;;;;;5029376;28;20034;-93
2023/04/17 00:46:55;;;;;;;42.85;22.45;;;10.70;99.90;;;;;;5028938;28;20075;-92
2023/04/17 00:49:22;;;;;;;29.52;14.40;;;10.70;99.90;;;;;;5024514;28;20089;-94
2023/04/17 00:51:48;;;;;;;45.00;20.70;;;10.70;99.90;;;;;;5022284;28;20040;-93
2023/04/17 00:54:14;;;;;;;41.55;19.85;;;10.70;99.90;;;;;;5022524;28;20018;-92
2023/04/17 00:56:42;;;;;;;40.13;19.92;;;10.70;99.90;;;;;;5017659;28;20022;-92
2023/04/17 00:59:12;;;;;;;46.38;21.20;;;10.70;99.90;;;;;;5017693;28;20033;-93
2023/04/17 01:01:37;;;;;;;45.20;21.02;;;10.70;99.90;;;;;;5017469;28;20112;-94
2023/04/17 01:04:04;;;;;;;49.88;21.63;;;10.70;99.90;;;;;;5035267;28;20454;-93
2023/04/17 01:06:30;;;;;;;43.40;20.63;;;10.70;99.90;;;;;;5017516;28;20026;-93
2023/04/17 01:08:56;;;;;;;47.85;23.80;;;10.60;99.90;;;;;;5017438;28;20085;-93
2023/04/17 01:11:22;;;;;;;45.97;23.75;;;10.70;99.90;;;;;;5017280;28;20495;-93
2023/04/17 01:13:49;;;;;;;42.10;21.77;;;10.70;99.90;;;;;;5017552;28;20025;-94
2023/04/17 01:16:16;;;;;;;50.65;23.55;;;10.70;99.90;;;;;;5018245;28;20044;-93
2023/04/17 01:18:41;;;;;;;40.78;20.20;;;10.70;99.90;;;;;;5017775;28;20507;-92
2023/04/17 01:21:07;;;;;;;41.13;21.40;;;10.70;99.90;;;;;;5034739;28;20037;-93
2023/04/17 01:23:45;;;;;;;39.58;21.17;;;10.70;99.90;;;;;;5016960;28;20032;-93
2023/04/17 01:26:21;;;;;;;36.38;18.33;;;10.70;99.90;;;;;;5031319;28;20089;-94
2023/04/17 01:28:52;;;;;;;43.70;21.95;;;10.70;99.90;;;;;;5034537;28;20053;-94
2023/04/17 01:31:17;;;;;;;46.25;21.98;;;10.70;99.90;;;;;;5034866;28;20029;-92
2023/04/17 01:33:43;;;;;;;47.10;22.60;;;10.70;99.90;;;;;;5034456;28;20024;-93
2023/04/17 01:36:09;;;;;;;43.85;22.45;;;10.70;99.90;;;;;;5017083;28;20026;-92
2023/04/17 01:38:34;;;;;;;45.95;23.13;;;10.70;99.90;;;;;;5016783;28;20084;-92
2023/04/17 01:41:08;;;;;;;44.42;19.90;;;10.70;99.90;;;;;;5016861;28;20030;-91
2023/04/17 01:43:38;;;;;;;44.10;20.83;;;10.70;99.90;;;;;;5016934;28;20032;-91
2023/04/17 01:46:03;;;;;;;38.72;21.23;;;10.60;99.90;;;;;;5016540;28;20033;-92
2023/04/17 01:48:29;;;;;;;48.70;22.70;;;10.60;99.90;;;;;;5016510;28;20032;-92
2023/04/17 01:50:55;;;;;;;47.97;22.52;;;10.60;99.90;;;;;;5034046;28;20057;-93
2023/04/17 01:53:20;;;;;;;48.92;22.67;;;10.60;99.90;;;;;;5016433;28;20017;-92
2023/04/17 01:55:46;;;;;;;54.90;24.08;;;10.60;99.90;;;;;;5015985;28;20082;-94
2023/04/17 01:58:12;;;;;;;51.78;25.00;;;10.60;99.90;;;;;;5033697;28;20374;-93
2023/04/17 02:00:37;;;;;;;46.42;23.13;;;10.60;99.90;;;;;;5016470;28;20120;-93
2023/04/17 02:03:03;;;;;;;46.28;22.30;;;10.60;99.90;;;;;;5015973;28;20045;-93
2023/04/17 02:05:28;;;;;;;46.03;22.52;;;10.60;99.90;;;;;;5016416;28;20325;-93
2023/04/17 02:07:54;;;;;;;53.08;23.08;;;10.60;99.90;;;;;;5016313;28;20017;-91
2023/04/17 02:10:20;;;;;;;49.50;23.52;;;10.50;99.90;;;;;;5017086;28;20037;-93
2023/04/17 02:12:45;;;;;;;44.75;22.17;;;10.50;99.90;;;;;;5036288;28;20037;-92
2023/04/17 02:15:11;;;;;;;46.75;23.15;;;10.50;99.90;;;;;;5039542;28;20116;-94
2023/04/17 02:17:37;;;;;;;44.35;22.13;;;10.50;99.90;;;;;;5016096;28;20033;-92
2023/04/17 02:20:05;;;;;;;42.83;22.92;;;10.50;99.90;;;;;;5015908;28;20037;-93
2023/04/17 02:22:32;;;;;;;45.10;21.90;;;10.50;99.90;;;;;;4999905;28;20096;-93
2023/04/17 02:24:58;;;;;;;41.90;20.48;;;10.50;99.90;;;;;;5015674;28;20021;-93
2023/04/17 02:27:23;;;;;;;41.08;21.35;;;10.40;99.90;;;;;;5015552;28;20017;-94
2023/04/17 02:29:49;;;;;;;45.30;20.73;;;10.50;99.90;;;;;;5033119;28;20025;-93
2023/04/17 02:32:16;;;;;;;37.72;20.90;;;10.50;99.90;;;;;;5033373;28;20045;-92
2023/04/17 02:34:41;;;;;;;43.50;22.30;;;10.40;99.90;;;;;;5015885;28;20036;-92
2023/04/17 02:37:07;;;;;;;43.53;21.48;;;10.40;99.90;;;;;;5015527;28;20017;-94
2023/04/17 02:39:34;;;;;;;43.80;22.30;;;10.40;99.90;;;;;;5015447;28;20029;-92
2023/04/17 02:42:01;;;;;;;48.38;20.90;;;10.40;99.90;;;;;;5033130;28;20521;-94
2023/04/17 02:44:27;;;;;;;43.20;21.73;;;10.40;99.90;;;;;;5030665;28;20033;-93
2023/04/17 02:46:53;;;;;;;46.15;22.55;;;10.40;99.90;;;;;;5015322;28;20018;-92
2023/04/17 02:49:18;;;;;;;46.28;21.48;;;10.40;99.90;;;;;;5015525;28;20045;-92
2023/04/17 02:51:44;;;;;;;43.58;21.00;;;10.40;99.90;;;;;;5015466;28;20108;-93
2023/04/17 02:54:10;;;;;;;27.45;15.50;;;10.40;99.90;;;;;;5015088;28;20382;-92
2023/04/17 02:56:37;;;;;;;49.00;21.58;;;10.40;99.90;;;;;;5015640;28;20601;-93
2023/04/17 02:59:02;;;;;;;45.00;20.98;;;10.40;99.90;;;;;;5015210;28;20049;-92
2023/04/17 03:01:28;;;;;;;42.00;20.77;;;10.30;99.90;;;;;;5032775;28;20064;-92
2023/04/17 03:03:54;;;;;;;47.05;21.92;;;10.30;99.90;;;;;;5016301;28;20100;-92
2023/04/17 03:06:20;;;;;;;37.83;18.80;;;10.30;99.90;;;;;;5019560;28;20033;-90
2023/04/17 03:08:46;;;;;;;40.00;20.02;;;10.30;99.90;;;;;;5019831;28;20084;-93
2023/04/17 03:11:12;;;;;;;38.30;19.63;;;10.30;99.90;;;;;;5019163;28;20017;-93
2023/04/17 03:13:37;;;;;;;44.13;19.73;;;10.30;99.90;;;;;;5037170;28;20076;-93
2023/04/17 03:16:04;;;;;;;41.92;20.23;;;10.30;99.90;;;;;;5019643;28;20076;-92
2023/04/17 03:18:30;;;;;;;34.67;18.35;;;10.30;99.90;;;;;;5019637;28;20029;-94
2023/04/17 03:20:57;;;;;;;33.80;19.13;;;10.30;99.90;;;;;;5019581;28;20037;-94
2023/04/17 03:23:22;;;;;;;34.33;17.73;;;10.30;99.90;;;;;;5036410;28;20029;-94
2023/04/17 03:25:49;;;;;;;40.40;19.15;;;10.30;99.90;;;;;;5036640;28;20017;-94
2023/04/17 03:28:14;;;;;;;36.22;17.25;;;10.30;99.90;;;;;;5018981;28;20013;-92
2023/04/17 03:30:40;;;;;;;39.70;19.33;;;10.30;99.90;;;;;;5018994;28;20029;-93
2023/04/17 03:33:06;;;;;;;26.48;14.95;;;10.30;99.90;;;;;;5036453;28;20022;-94
2023/04/17 03:35:32;;;;;;;24.58;13.00;;;10.20;99.90;;;;;;5035118;28;20025;-92
2023/04/17 03:37:57;;;;;;;22.83;13.70;;;10.30;99.90;;;;;;5021518;28;20086;-92
2023/04/17 03:40:23;;;;;;;26.10;12.77;;;10.30;99.90;;;;;;5019179;28;20041;-93
2023/04/17 03:42:48;;;;;;;30.25;15.57;;;10.20;99.90;;;;;;5018604;28;20493;-91
2023/04/17 03:45:15;;;;;;;33.67;16.20;;;10.20;99.90;;;;;;5018772;28;20076;-93
2023/04/17 03:47:41;;;;;;;37.10;18.10;;;10.20;99.90;;;;;;5018356;28;20182;-92
2023/04/17 03:50:07;;;;;;;21.30;12.07;;;10.20;99.90;;;;;;5018660;28;20049;-92
2023/04/17 03:52:33;;;;;;;26.48;15.85;;;10.20;99.90;;;;;;5018595;28;20029;-92
2023/04/17 03:54:58;;;;;;;28.77;14.95;;;10.20;99.90;;;;;;5018654;28;20037;-92
2023/04/17 03:57:24;;;;;;;26.30;14.43;;;10.20;99.90;;;;;;5018797;28;20022;-93
2023/04/17 03:59:50;;;;;;;25.88;14.48;;;10.10;99.90;;;;;;5018388;28;20021;-93
2023/04/17 04:02:16;;;;;;;20.55;10.98;;;10.10;99.90;;;;;;5017968;28;20022;-94
2023/04/17 04:04:42;;;;;;;22.60;12.88;;;10.10;99.90;;;;;;5018329;28;20382;-93
2023/04/17 04:07:07;;;;;;;25.55;13.52;;;10.10;99.90;;;;;;5035791;28;20053;-93
2023/04/17 04:09:33;;;;;;;25.90;12.40;;;10.10;99.90;;;;;;5018193;28;20040;-92
2023/04/17 04:11:59;;;;;;;22.15;12.02;;;10.00;99.90;;;;;;5018327;28;20500;-93
2023/04/17 04:14:24;;;;;;;18.40;11.07;;;10.00;99.90;;;;;;5018006;28;20029;-92
2023/04/17 04:16:50;;;;;;;21.45;11.25;;;9.90;99.90;;;;;;5017364;28;20017;-93
2023/04/17 04:19:16;;;;;;;17.52;10.23;;;9.90;99.90;;;;;;5017956;28;20061;-92
2023/04/17 04:21:42;;;;;;;18.90;10.18;;;9.90;99.90;;;;;;5017940;28;20029;-92
2023/04/17 04:24:08;;;;;;;20.48;11.80;;;9.80;99.90;;;;;;5018134;28;20079;-93
2023/04/17 04:26:34;;;;;;;15.02;9.05;;;9.80;99.90;;;;;;5017944;28;20030;-93
2023/04/17 04:29:00;;;;;;;17.50;10.45;;;9.80;99.90;;;;;;5034282;28;20017;-93
2023/04/17 04:31:29;;;;;;;20.83;11.10;;;9.80;99.90;;;;;;5035371;28;20055;-93
2023/04/17 04:34:00;;;;;;;17.60;10.93;;;9.70;99.90;;;;;;5017877;28;20041;-93
2023/04/17 04:36:28;;;;;;;;;;;9.70;99.90;;;;;;5018865;28;20095;-93
2023/04/17 04:38:58;;;;;;;24.23;13.00;;;9.70;99.90;;;;;;5034504;28;19935;-93
2023/04/17 04:41:25;;;;;;;25.63;13.07;;;9.70;99.90;;;;;;5035487;28;20040;-92
2023/04/17 04:43:52;;;;;;;28.30;14.23;;;9.70;99.90;;;;;;5018069;28;20025;-91
2023/04/17 04:46:17;;;;;;;25.05;12.82;;;9.70;99.90;;;;;;5017682;28;20029;-94
2023/04/17 04:48:43;;;;;;;18.40;11.93;;;9.70;99.90;;;;;;5017859;28;20022;-93
2023/04/17 04:51:09;;;;;;;25.05;13.43;;;9.70;99.90;;;;;;5035356;28;20025;-92
2023/04/17 04:53:35;;;;;;;27.05;12.02;;;9.70;99.90;;;;;;5018749;28;20026;-91
2023/04/17 04:56:00;;;;;;;21.08;12.63;;;9.70;99.90;;;;;;5017815;28;20010;-92
2023/04/17 04:58:28;;;;;;;25.70;12.48;;;9.60;99.90;;;;;;5035368;28;20478;-93
2023/04/17 05:00:54;;;;;;;20.05;11.30;;;9.70;99.90;;;;;;5019149;28;20033;-92
2023/04/17 05:03:21;;;;;;;19.42;11.63;;;9.70;99.90;;;;;;5024750;28;20385;-92
2023/04/17 05:05:49;;;;;;;18.33;11.48;;;9.70;99.90;;;;;;5014946;28;20025;-93
2023/04/17 05:08:15;;;;;;;20.10;11.52;;;9.70;99.90;;;;;;5017171;28;20022;-92
2023/04/17 05:10:40;;;;;;;22.40;13.52;;;9.70;99.90;;;;;;5034629;28;20033;-93
2023/04/17 05:13:06;;;;;;;22.23;13.43;;;9.70;99.90;;;;;;5017589;28;20024;-93
2023/04/17 05:15:32;;;;;;;24.67;13.77;;;9.70;99.90;;;;;;5038070;28;20033;-92
2023/04/17 05:17:57;;;;;;;28.05;14.65;;;9.70;99.90;;;;;;5036178;28;20083;-93
2023/04/17 05:20:25;;;;;;;24.88;14.27;;;9.60;99.90;;;;;;5017329;28;20040;-92
2023/04/17 05:22:50;;;;;;;23.98;13.52;;;9.60;99.90;;;;;;5034529;28;20010;-92
2023/04/17 05:25:18;;;;;;;23.65;12.80;;;9.60;99.90;;;;;;5017353;28;20022;-93
2023/04/17 05:27:45;;;;;;;21.98;11.90;;;9.60;99.90;;;;;;5016990;28;20020;-92
2023/04/17 05:30:11;;;;;;;22.63;13.30;;;9.60;99.90;;;;;;5016905;28;20414;-91
2023/04/17 05:32:37;;;;;;;24.20;13.35;;;9.50;99.90;;;;;;5016962;28;20037;-92
2023/04/17 05:35:04;;;;;;;21.83;12.63;;;9.50;99.90;;;;;;5017997;28;20013;-91
2023/04/17 05:37:30;;;;;;;25.75;13.45;;;9.50;99.90;;;;;;5036510;28;20075;-92
2023/04/17 05:39:55;;;;;;;26.73;14.40;;;9.50;99.90;;;;;;5033749;28;20112;-92
2023/04/17 05:42:21;;;;;;;24.08;14.05;;;9.50;99.90;;;;;;5016475;28;20047;-91
2023/04/17 05:44:47;;;;;;;24.52;13.70;;;9.60;99.90;;;;;;5017403;28;20017;-91
2023/04/17 05:47:12;;;;;;;32.05;15.07;;;9.60;99.90;;;;;;5016170;28;20525;-92
2023/04/17 05:49:38;;;;;;;25.02;13.82;;;9.60;99.90;;;;;;5016252;28;20063;-93
2023/04/17 05:52:04;;;;;;;30.10;16.33;;;9.60;99.90;;;;;;5016237;28;20018;-93
2023/04/17 05:54:29;;;;;;;30.50;16.52;;;9.60;99.90;;;;;;5016035;28;20023;-92
2023/04/17 05:56:55;;;;;;;29.95;16.10;;;9.70;99.90;;;;;;5033828;28;20017;-92
2023/04/17 05:59:21;;;;;;;33.50;16.45;;;9.70;99.90;;;;;;5016815;28;20049;-91
2023/04/17 06:01:47;;;;;;;31.75;17.27;;;9.70;99.90;;;;;;5016847;28;20551;-91
2023/04/17 06:04:13;;;;;;;31.13;16.63;;;9.70;99.90;;;;;;5033612;28;20049;-90
2023/04/17 06:06:39;;;;;;;30.55;16.63;;;9.80;99.90;;;;;;5016332;28;20037;-92
2023/04/17 06:09:06;;;;;;;29.33;16.50;;;9.80;99.90;;;;;;5016235;28;20013;-92
2023/04/17 06:11:32;;;;;;;32.70;16.65;;;9.80;99.90;;;;;;5016518;28;20032;-91
2023/04/17 06:13:58;;;;;;;31.55;17.17;;;9.80;99.90;;;;;;5019179;28;20017;-91
2023/04/17 06:16:23;;;;;;;32.67;18.00;;;9.80;99.90;;;;;;5026333;28;20025;-92
2023/04/17 06:18:49;;;;;;;34.33;17.92;;;9.80;99.90;;;;;;5027503;28;20018;-91
2023/04/17 06:21:15;;;;;;;34.47;17.88;;;9.90;99.90;;;;;;5024425;28;20128;-90
2023/04/17 06:23:41;;;;;;;29.40;17.85;;;9.90;99.90;;;;;;5024492;28;20043;-89
2023/04/17 06:26:06;;;;;;;34.28;18.38;;;9.90;99.90;;;;;;5035853;28;20033;-92
2023/04/17 06:28:32;;;;;;;39.72;19.90;;;9.90;99.90;;;;;;5016316;28;20061;-91
2023/04/17 06:30:58;;;;;;;34.58;19.00;;;10.00;99.90;;;;;;5015618;28;20072;-91
2023/04/17 06:33:23;;;;;;;31.95;18.05;;;10.00;99.90;;;;;;5015851;28;20167;-92
2023/04/17 06:35:49;;;;;;;33.13;17.10;;;10.00;99.90;;;;;;5033282;28;20021;-92
2023/04/17 06:38:15;;;;;;;28.42;17.88;;;10.00;99.90;;;;;;5014976;28;20029;-91
2023/04/17 06:40:41;;;;;;;34.80;17.83;;;10.00;99.90;;;;;;5035660;28;20033;-94
2023/04/17 06:43:07;;;;;;;27.52;16.58;;;10.00;99.90;;;;;;5033378;28;20040;-92
2023/04/17 06:45:33;;;;;;;26.63;16.42;;;10.10;99.90;;;;;;5015766;28;20030;-91
2023/04/17 06:47:58;;;;;;;32.40;16.98;;;10.10;99.90;;;;;;5015619;28;20029;-92
2023/04/17 06:50:24;;;;;;;31.58;16.83;;;10.10;99.90;;;;;;5015474;28;20033;-92
2023/04/17 06:52:50;;;;;;;29.35;15.98;;;10.10;99.90;;;;;;5016491;28;20030;-92
2023/04/17 06:55:16;;;;;;;24.45;15.35;;;10.10;99.90;;;;;;5015867;28;20092;-92
2023/04/17 06:57:41;;;;;;;31.73;14.95;;;10.20;99.90;;;;;;5017045;28;20030;-92
2023/04/17 07:00:08;;;;;;;22.75;13.52;;;10.20;99.90;;;;;;5029031;28;20044;-91
2023/04/17 07:02:33;;;;;;;23.73;14.00;;;10.10;99.90;;;;;;5033542;28;20041;-93
2023/04/17 07:04:59;;;;;;;25.05;14.57;;;10.20;99.90;;;;;;5015200;28;20021;-91
2023/04/17 07:07:25;;;;;;;23.02;13.63;;;10.20;99.90;;;;;;5015539;28;20037;-92
2023/04/17 07:09:51;;;;;;;26.65;14.80;;;10.20;99.90;;;;;;5015469;28;20021;-92
2023/04/17 07:12:17;;;;;;;22.85;13.52;;;10.20;99.90;;;;;;5015763;28;20026;-93
2023/04/17 07:14:42;;;;;;;22.38;13.30;;;10.30;99.90;;;;;;5016424;28;20076;-91
2023/04/17 07:17:08;;;;;;;23.08;13.93;;;10.30;99.90;;;;;;5017794;28;20029;-92
2023/04/17 07:19:34;;;;;;;20.45;12.85;;;10.40;99.90;;;;;;5018170;28;20034;-92
2023/04/17 07:22:00;;;;;;;23.17;14.40;;;10.40;99.90;;;;;;5016277;28;20024;-91
2023/04/17 07:24:26;;;;;;;22.20;13.85;;;10.50;99.90;;;;;;5015279;28;20089;-92
2023/04/17 07:26:52;;;;;;;23.88;14.80;;;10.50;99.90;;;;;;5015313;28;20072;-92
2023/04/17 07:29:17;;;;;;;21.85;13.57;;;10.60;99.90;;;;;;5015109;28;20018;-92
2023/04/17 07:31:43;;;;;;;26.02;13.95;;;10.60;99.90;;;;;;5033007;28;20013;-91
2023/04/17 07:34:08;;;;;;;24.02;14.82;;;10.60;99.90;;;;;;5034998;28;20055;-93
2023/04/17 07:36:34;;;;;;;23.92;14.65;;;10.70;99.90;;;;;;5015232;28;20390;-93
2023/04/17 07:39:00;;;;;;;28.55;15.82;;;10.80;99.90;;;;;;5034668;28;20045;-94
2023/04/17 07:41:26;;;;;;;23.40;15.77;;;10.80;99.90;;;;;;5033506;28;20497;-94
2023/04/17 07:43:51;;;;;;;29.10;16.33;;;10.80;99.90;;;;;;5032648;28;20021;-93
2023/04/17 07:46:17;;;;;;;29.60;16.52;;;10.90;99.90;;;;;;5034574;28;20452;-93
2023/04/17 07:48:43;;;;;;;29.13;16.70;;;10.90;99.90;;;;;;5017048;28;20466;-93
2023/04/17 07:51:09;;;;;;;29.17;15.63;;;11.00;99.90;;;;;;5038553;28;20066;-92
2023/04/17 07:53:36;;;;;;;28.92;16.83;;;11.00;99.90;;;;;;5040773;28;20046;-92
2023/04/17 07:56:01;;;;;;;34.70;17.63;;;11.00;99.90;;;;;;5018670;28;20021;-92
2023/04/17 07:58:27;;;;;;;35.22;17.33;;;11.10;99.90;;;;;;5018415;28;20462;-93
2023/04/17 08:00:53;;;;;;;37.25;18.67;;;11.10;99.90;;;;;;5018503;28;20435;-92
2023/04/17 08:03:22;;;;;;;35.88;18.55;;;11.10;99.90;;;;;;5035996;28;20034;-92
2023/04/17 08:05:50;;;;;;;39.40;18.27;;;11.10;99.90;;;;;;5018177;28;20029;-93
2023/04/17 08:08:16;;;;;;;34.10;17.90;;;11.10;99.90;;;;;;5036232;28;20071;-93
2023/04/17 08:10:42;;;;;;;37.55;17.70;;;11.20;99.90;;;;;;5015489;28;20029;-92
2023/04/17 08:13:08;;;;;;;46.22;19.67;;;11.20;99.90;;;;;;5017706;28;20104;-93
2023/04/17 08:15:37;;;;;;;33.63;17.30;;;11.20;99.90;;;;;;5035893;28;20612;-94
2023/04/17 08:18:03;;;;;;;37.15;17.33;;;11.20;99.90;;;;;;5019691;28;20033;-93
2023/04/17 08:20:29;;;;;;;33.70;16.90;;;11.30;99.90;;;;;;5018769;28;20033;-93
2023/04/17 08:22:55;;;;;;;31.13;16.75;;;11.30;99.90;;;;;;5019116;28;20025;-92
2023/04/17 08:25:21;;;;;;;35.70;17.02;;;11.30;99.90;;;;;;5018003;28;20424;-92
2023/04/17 08:27:46;;;;;;;33.15;15.68;;;11.40;99.90;;;;;;5019957;28;20392;-92
2023/04/17 08:30:12;;;;;;;32.35;16.27;;;11.40;99.90;;;;;;5036367;28;20029;-91
2023/04/17 08:32:43;;;;;;;26.83;14.15;;;11.40;99.90;;;;;;5018491;28;20121;-93
2023/04/17 08:35:10;;;;;;;29.20;15.32;;;11.50;99.90;;;;;;5036142;28;20083;-93
2023/04/17 08:37:41;;;;;;;25.67;14.27;;;11.50;99.90;;;;;;5024285;28;20097;-93
2023/04/17 08:40:08;;;;;;;27.20;12.68;;;11.50;99.90;;;;;;5020208;28;20033;-91
2023/04/17 08:42:39;;;;;;;26.92;14.05;;;11.50;99.90;;;;;;5020427;28;20112;-93
2023/04/17 08:45:06;;;;;;;28.02;14.00;;;11.50;99.90;;;;;;5022989;28;20059;-88
2023/04/17 08:47:33;;;;;;;25.42;12.88;;;11.60;99.90;;;;;;5024212;28;20101;-94
2023/04/17 08:50:19;;;;;;;32.90;13.27;;;11.60;99.90;;;;;;5026886;28;20085;-91
2023/04/17 08:52:49;;;;;;;23.15;12.60;;;11.70;99.90;;;;;;5043422;28;20100;-93
2023/04/17 08:55:18;;;;;;;29.95;14.52;;;11.70;99.90;;;;;;5028274;28;20021;-92
2023/04/17 08:58:02;;;;;;;21.92;12.35;;;11.70;99.90;;;;;;5029240;28;20002;-90
2023/04/17 09:00:33;;;;;;;24.95;11.60;;;11.80;99.90;;;;;;5033850;28;20037;-93
2023/04/17 09:03:00;;;;;;;;;;;11.90;99.90;;;;;;5039636;28;20554;-90
2023/04/17 09:05:29;;;;;;;30.58;11.98;;;11.90;99.90;;;;;;5023978;28;20336;-90
2023/04/17 09:08:19;;;;;;;32.17;11.65;;;12.00;99.90;;;;;;5022710;28;20025;-92
2023/04/17 09:10:49;;;;;;;20.98;11.75;;;12.00;99.90;;;;;;5037968;28;20406;-92
2023/04/17 09:13:17;;;;;;;23.05;12.90;;;12.00;99.90;;;;;;5033350;28;20025;-91
2023/04/17 09:15:44;;;;;;;22.40;10.80;;;12.10;99.90;;;;;;5044028;28;20539;-91
2023/04/17 09:18:29;;;;;;;24.88;12.68;;;12.10;99.90;;;;;;5021344;28;20548;-91
2023/04/17 09:20:59;;;;;;;23.42;11.65;;;12.20;99.90;;;;;;5016549;28;20048;-92
2023/04/17 09:23:30;;;;;;;22.42;12.07;;;12.30;99.90;;;;;;5034264;28;20025;-92
2023/04/17 09:26:15;;;;;;;;;;;12.40;99.90;;;;;;5034767;28;20410;-92
2023/04/17 09:28:58;;;;;;;18.60;10.50;;;12.40;99.90;;;;;;5032795;28;20354;-91
2023/04/17 09:31:25;;;;;;;20.60;11.35;;;12.50;99.90;;;;;;5017252;28;20116;-92
2023/04/17 09:33:56;;;;;;;22.90;11.07;;;12.60;99.90;;;;;;5034776;28;20027;-91
2023/04/17 09:36:22;;;;;;;20.15;10.93;;;12.70;99.90;;;;;;5018091;28;20502;-92
2023/04/17 09:38:49;;;;;;;23.55;11.25;;;12.80;99.90;;;;;;5033864;28;20033;-92
2023/04/17 09:41:28;;;;;;;22.92;11.18;;;12.90;99.90;;;;;;5033375;28;20025;-92
2023/04/17 09:44:04;;;;;;;20.95;11.60;;;13.00;99.90;;;;;;5030156;28;20021;-93
2023/04/17 09:46:44;;;;;;;20.60;10.35;;;13.10;99.90;;;;;;5030984;28;20129;-93
2023/04/17 09:49:35;;;;;;;21.77;10.13;;;13.10;99.90;;;;;;5032168;28;20026;-91
2023/04/17 09:52:02;;;;;;;20.20;9.88;;;13.20;99.90;;;;;;5027511;28;20038;-93
2023/04/17 09:54:30;;;;;;;18.50;9.75;;;13.30;99.90;;;;;;5033667;28;20056;-93
2023/04/17 09:56:57;;;;;;;16.52;9.25;;;13.30;99.90;;;;;;5034144;28;20026;-92
2023/04/17 09:59:24;;;;;;;15.82;9.35;;;13.40;99.90;;;;;;5035409;28;20033;-92
2023/04/17 10:01:52;;;;;;;18.85;10.18;;;13.40;99.90;;;;;;5040556;28;20068;-92
2023/04/17 10:04:19;;;;;;;24.77;11.02;;;13.50;99.90;;;;;;5040945;28;20104;-91
2023/04/17 10:06:45;;;;;;;23.13;11.05;;;13.60;99.90;;;;;;5024840;28;20032;-90
2023/04/17 10:09:11;;;;;;;18.63;10.75;;;13.60;99.90;;;;;;5037691;28;20021;-92
2023/04/17 10:11:40;;;;;;;23.20;10.02;;;13.70;99.90;;;;;;5040816;28;20072;-92
2023/04/17 10:14:25;;;;;;;18.38;9.55;;;13.80;99.90;;;;;;5037368;28;20025;-93
2023/04/17 10:16:50;;;;;;;17.67;10.45;;;13.90;99.90;;;;;;5030677;28;20155;-91
2023/04/17 10:19:31;;;;;;;15.88;9.02;;;14.00;99.90;;;;;;5034203;28;20049;-93
2023/04/17 10:22:15;;;;;;;16.08;9.52;;;14.10;99.90;;;;;;5035733;28;20105;-93
2023/04/17 10:24:44;;;;;;;17.95;9.02;;;14.20;99.90;;;;;;5024543;28;20129;-91
2023/04/17 10:27:27;;;;;;;18.33;9.63;;;14.30;99.90;;;;;;5039909;28;20018;-91
2023/04/17 10:30:03;;;;;;;20.20;9.45;;;14.50;99.90;;;;;;5019028;28;20025;-92
2023/04/17 10:32:30;;;;;;;16.38;9.15;;;14.60;99.90;;;;;;5036175;28;20081;-89
2023/04/17 10:35:21;;;;;;;18.10;9.18;;;14.70;99.90;;;;;;5035017;28;20104;-89
2023/04/17 10:37:47;;;;;;;17.85;8.60;;;14.70;99.90;;;;;;5034770;28;20047;-90
2023/04/17 10:40:19;;;;;;;19.83;9.35;;;14.70;99.90;;;;;;5018735;28;20064;-93
2023/04/17 10:43:16;;;;;;;15.57;7.82;;;14.70;99.90;;;;;;5018618;28;20026;-90
2023/04/17 10:46:02;;;;;;;16.83;8.27;;;14.70;99.90;;;;;;5016293;28;20029;-89
2023/04/17 10:48:34;;;;;;;14.77;7.97;;;14.70;99.90;;;;;;5017071;28;20112;-92
2023/04/17 10:51:19;;;;;;;11.80;6.93;;;14.80;99.90;;;;;;5033906;28;20060;-91
2023/04/17 10:53:45;;;;;;;13.30;7.13;;;14.90;99.90;;;;;;5014693;28;20125;-91
2023/04/17 10:56:27;;;;;;;17.20;7.78;;;14.80;99.90;;;;;;5033613;28;20454;-91
2023/04/17 10:59:17;;;;;;;14.07;7.78;;;14.90;99.90;;;;;;5016025;28;20026;-92
2023/04/17 11:01:49;;;;;;;12.25;7.60;;;15.00;99.90;;;;;;5035454;28;20029;-91
2023/04/17 11:04:21;;;;;;;16.00;7.78;;;15.10;99.90;;;;;;5015388;28;20046;-91
2023/04/17 11:06:46;;;;;;;15.98;7.50;;;15.10;99.90;;;;;;5033003;28;20032;-92
2023/04/17 11:09:13;;;;;;;19.95;9.10;;;15.20;99.90;;;;;;5036666;28;20034;-91
2023/04/17 11:11:41;;;;;;;12.32;7.35;;;15.20;99.90;;;;;;5020106;28;20092;-92
2023/04/17 11:14:09;;;;;;;10.07;6.25;;;15.30;99.90;;;;;;5037345;28;20042;-93
2023/04/17 11:16:38;;;;;;;14.23;6.78;;;15.40;99.90;;;;;;5033620;28;20026;-92
2023/04/17 11:19:05;;;;;;;11.23;6.53;;;15.40;99.90;;;;;;5032697;28;20490;-92
2023/04/17 11:21:31;;;;;;;14.75;6.78;;;15.40;99.90;;;;;;5015363;28;20076;-93
2023/04/17 11:24:01;;;;;;;12.40;6.68;;;15.40;99.90;;;;;;5032275;28;20079;-93
2023/04/17 11:26:26;;;;;;;13.77;7.28;;;15.30;99.90;;;;;;5034899;28;20525;-91
2023/04/17 11:28:52;;;;;;;11.75;6.50;;;15.30;99.90;;;;;;5036163;28;20021;-92
2023/04/17 11:31:18;;;;;;;13.00;7.22;;;15.30;99.90;;;;;;5033624;28;20073;-92
2023/04/17 11:33:46;;;;;;;10.75;5.80;;;15.20;99.90;;;;;;5035531;28;20041;-92
2023/04/17 11:36:12;;;;;;;13.70;7.20;;;15.20;99.90;;;;;;5036945;28;20451;-92
2023/04/17 11:38:47;;;;;;;12.50;6.70;;;15.20;99.90;;;;;;5035969;28;20049;-91
2023/04/17 11:41:12;;;;;;;8.57;5.55;;;15.10;99.90;;;;;;5034531;28;20057;-93
2023/04/17 11:43:38;;;;;;;9.57;6.50;;;15.10;99.90;;;;;;5036297;28;20061;-92
2023/04/17 11:46:05;;;;;;;10.73;6.25;;;15.00;99.90;;;;;;5036034;28;20497;-93
2023/04/17 11:48:33;;;;;;;15.25;8.18;;;14.90;99.90;;;;;;5035044;28;20021;-90
2023/04/17 11:51:03;;;;;;;19.20;7.35;;;14.80;99.90;;;;;;5018494;28;20128;-93
2023/04/17 11:53:31;;;;;;;11.60;6.57;;;14.70;99.90;;;;;;5035354;28;20033;-92
2023/04/17 11:56:17;;;;;;;9.20;6.28;;;14.70;99.90;;;;;;5036179;28;20030;-91
2023/04/17 11:58:49;;;;;;;13.60;6.57;;;14.60;99.90;;;;;;5015368;28;20095;-92
2023/04/17 12:01:17;;;;;;;13.80;6.25;;;14.50;99.90;;;;;;5008476;28;20088;-92
2023/04/17 12:03:44;;;;;;;10.60;6.20;;;14.50;99.90;;;;;;5035411;28;20057;-93
2023/04/17 12:06:10;;;;;;;10.90;7.35;;;14.50;99.90;;;;;;5019168;28;20501;-92
2023/04/17 12:08:49;;;;;;;13.60;6.72;;;14.50;99.90;;;;;;5038870;28;20021;-92
2023/04/17 12:11:25;;;;;;;11.30;6.43;;;14.50;99.90;;;;;;5036952;28;20022;-92
2023/04/17 12:13:57;;;;;;;11.73;6.28;;;14.50;99.90;;;;;;5033578;28;20022;-92
2023/04/17 12:16:24;;;;;;;15.32;7.35;;;14.50;99.90;;;;;;5008716;28;20029;-92
2023/04/17 12:18:50;;;;;;;11.95;6.97;;;14.50;99.90;;;;;;5036142;28;20017;-93
2023/04/17 12:21:18;;;;;;;10.73;7.15;;;14.60;99.90;;;;;;5006320;28;20033;-92
2023/04/17 12:23:43;;;;;;;15.52;7.00;;;14.50;99.90;;;;;;5017985;28;20026;-92
2023/04/17 12:26:09;;;;;;;13.90;7.55;;;14.50;99.90;;;;;;5034910;28;20475;-92
2023/04/17 12:28:35;;;;;;;13.68;7.13;;;14.60;99.90;;;;;;5032399;28;20034;-93
2023/04/17 12:31:02;;;;;;;12.63;7.53;;;14.60;99.90;;;;;;5008287;28;20048;-92
2023/04/17 12:33:28;;;;;;;12.82;7.95;;;14.70;99.90;;;;;;5034795;28;20455;-92